Time;durP1;ratioP1;P1;durP2;ratioP2;P2;SDS_P1;SDS_P2;PMS_P1;PMS_P2;Temp;Humidity;BMP_temperature;BMP_pressure;BME280_temperature;BME280_humidity;BME280_pressure;Samples;Min_cycle;Max_cycle;Signal;HPM_P1;HPM_P2
2024/04/01 00:01:41;;;;;;;8.60;2.30;;;;;;;-147.86;100.00;21422.02;105994;1251;73817;-46
2024/04/01 00:04:08;;;;;;;7.40;2.30;;;;;;;-147.86;100.00;16640.00;105920;1251;63570;-45
2024/04/01 00:06:35;;;;;;;9.10;3.00;;;;;;;-147.86;100.00;12560.05;105946;1251;72730;-45
2024/04/01 00:09:02;;;;;;;4.20;1.90;;;;;;;-147.86;100.00;8285.56;105975;1255;60411;-47
2024/04/01 00:11:29;;;;;;;6.10;2.40;;;;;;;-147.86;100.00;4214.18;106044;1253;60357;-45
2024/04/01 00:13:56;;;;;;;8.90;2.30;;;;;;;-147.86;100.00;990.12;105973;1251;73646;-46
2024/04/01 00:16:23;;;;;;;6.20;2.40;;;;;;;-147.86;100.00;-3172.52;105940;1255;65330;-46
2024/04/01 00:18:51;;;;;;;3.20;1.70;;;;;;;-147.86;100.00;-6687.51;105963;1251;72711;-46
2024/04/01 00:21:18;;;;;;;4.70;1.80;;;;;;;-147.86;100.00;-9210.31;105993;1254;60342;-45
2024/04/01 00:23:48;;;;;;;4.60;1.90;;;;;;;-147.86;100.00;-11682.03;105971;1251;60427;-46
2024/04/01 00:26:16;;;;;;;8.10;1.80;;;;;;;-147.86;100.00;-14250.96;105945;1253;73727;-47
2024/04/01 00:28:43;;;;;;;3.30;1.80;;;;;;;-147.86;100.00;-15880.35;105945;1251;65409;-46
2024/04/01 00:31:10;;;;;;;8.60;2.00;;;;;;;-147.86;100.00;-17212.95;105913;1251;72387;-45
2024/04/01 00:33:37;;;;;;;4.10;1.70;;;;;;;-147.86;100.00;-17609.17;105878;1256;60402;-46
2024/04/01 00:36:04;;;;;;;9.10;1.80;;;;;;;-147.86;100.00;-17609.17;105979;1251;60521;-45
2024/04/01 00:38:31;;;;;;;5.80;1.70;;;;;;;-147.86;100.00;-17609.17;105972;1254;73662;-46
2024/04/01 00:40:58;;;;;;;5.70;1.70;;;;;;;-147.86;100.00;-17609.17;106026;1257;65220;-47
2024/04/01 00:43:25;;;;;;;4.40;1.80;;;;;;;-147.86;100.00;-17609.17;105953;1251;72556;-46
2024/04/01 00:45:52;;;;;;;7.80;1.60;;;;;;;-147.86;100.00;-17609.17;105919;1251;61756;-46
2024/04/01 00:48:19;;;;;;;3.90;1.60;;;;;;;-147.86;100.00;-17609.17;105950;1251;60448;-45
2024/04/01 00:50:48;;;;;;;4.00;1.80;;;;;;;-147.86;100.00;-17609.17;105969;1257;73852;-45
2024/04/01 00:53:14;;;;;;;7.10;1.80;;;;;;;-147.86;100.00;-17609.17;106058;1255;65526;-46
2024/04/01 00:55:42;;;;;;;4.40;1.60;;;;;;;-147.86;100.00;-17609.17;105988;1256;72580;-48
2024/04/01 00:58:09;;;;;;;4.70;1.70;;;;;;;-147.86;100.00;-17609.17;105958;1256;60402;-47
2024/04/01 01:00:36;;;;;;;3.90;1.80;;;;;;;-147.86;100.00;-17609.17;105805;1253;60492;-45
2024/04/01 01:03:03;;;;;;;6.80;2.00;;;;;;;-147.86;100.00;-17609.17;105772;1252;73831;-47
2024/04/01 01:05:30;;;;;;;7.40;1.70;;;;;;;-147.86;100.00;-17609.17;105984;1252;65453;-45
2024/04/01 01:07:57;;;;;;;5.50;1.80;;;;;;;-147.86;100.00;-17609.17;105800;1254;72686;-46
2024/04/01 01:10:24;;;;;;;5.20;1.30;;;;;;;-147.86;100.00;-17609.17;105943;1256;60373;-46
2024/04/01 01:12:51;;;;;;;5.50;1.90;;;;;;;-147.86;100.00;-17609.17;106011;1251;60514;-46
2024/04/01 01:15:18;;;;;;;3.90;1.80;;;;;;;-147.86;100.00;-17609.17;105949;1255;74276;-46
2024/04/01 01:17:45;;;;;;;6.50;1.90;;;;;;;-147.86;100.00;-17609.17;105720;1251;65378;-46
2024/04/01 01:20:12;;;;;;;4.90;2.10;;;;;;;-147.86;100.00;-17609.17;106012;1255;72649;-46
2024/04/01 01:22:42;;;;;;;3.10;1.60;;;;;;;-147.86;100.00;-17609.17;105965;1251;61674;-46
2024/04/01 01:25:09;;;;;;;12.40;2.80;;;;;;;-147.86;100.00;-17609.17;105972;1251;60430;-45
2024/04/01 01:27:37;;;;;;;2.00;1.30;;;;;;;-147.86;100.00;-17609.17;106030;1251;73896;-45
2024/04/01 01:30:14;;;;;;;2.90;1.90;;;;;;;-147.86;100.00;-17609.17;106039;1255;65399;-45
2024/04/01 01:32:45;;;;;;;6.20;1.60;;;;;;;-147.86;100.00;-17609.17;105942;1251;72476;-45
2024/04/01 01:35:14;;;;;;;4.50;1.80;;;;;;;-147.86;100.00;-17609.17;105763;1256;61799;-46
2024/04/01 01:37:40;;;;;;;4.80;1.80;;;;;;;-147.86;100.00;-17609.17;105878;1256;60336;-47
2024/04/01 01:40:10;;;;;;;4.70;1.70;;;;;;;-147.86;100.00;-17609.17;105823;1253;73847;-45
2024/04/01 01:42:37;;;;;;;6.20;1.70;;;;;;;-147.86;100.00;-17609.17;106004;1255;65436;-45
2024/04/01 01:45:05;;;;;;;6.40;1.90;;;;;;;-147.86;100.00;-17609.17;105949;1251;72641;-45
2024/04/01 01:47:34;;;;;;;5.20;1.60;;;;;;;-147.86;100.00;-17609.17;105924;1251;61230;-45
2024/04/01 01:50:03;;;;;;;6.30;1.80;;;;;;;-147.86;100.00;-17609.17;105897;1251;61275;-46
2024/04/01 01:52:30;;;;;;;8.90;1.80;;;;;;;-147.86;100.00;-17609.17;105917;1256;74471;-47
2024/04/01 01:54:57;;;;;;;4.00;1.70;;;;;;;-147.86;100.00;-17609.17;105883;1251;65520;-46
2024/04/01 01:57:24;;;;;;;8.00;2.10;;;;;;;-147.86;100.00;-17609.17;105884;1251;72603;-47
2024/04/01 01:59:51;;;;;;;6.20;2.20;;;;;;;-147.86;100.00;-17609.17;105888;1257;61232;-45
2024/04/01 02:02:18;;;;;;;6.60;1.90;;;;;;;-147.86;100.00;-17609.17;105958;1251;61330;-47
2024/04/01 02:04:45;;;;;;;12.30;2.50;;;;;;;-147.86;100.00;-17609.17;105938;1251;74600;-45
2024/04/01 02:07:12;;;;;;;6.10;1.90;;;;;;;-147.86;100.00;-17609.17;105965;1251;65534;-45
2024/04/01 02:09:39;;;;;;;6.90;1.80;;;;;;;-147.86;100.00;-17609.17;105907;1251;72566;-46
2024/04/01 02:12:09;;;;;;;3.00;2.10;;;;;;;-147.86;100.00;-17609.17;105900;1251;61751;-45
2024/04/01 02:14:39;;;;;;;4.90;2.30;;;;;;;-147.86;100.00;-17609.17;105900;1251;61266;-46
2024/04/01 02:17:09;;;;;;;10.50;2.30;;;;;;;-147.86;100.00;-17609.17;105996;1255;74691;-46
2024/04/01 02:19:36;;;;;;;5.40;2.10;;;;;;;-147.86;100.00;-17609.17;105967;1256;64636;-48
2024/04/01 02:22:03;;;;;;;7.30;2.30;;;;;;;-147.86;100.00;-17609.17;105909;1251;72586;-49
2024/04/01 02:24:30;;;;;;;11.30;2.50;;;;;;;-147.86;100.00;-17609.17;105699;1251;61779;-47
2024/04/01 02:26:57;;;;;;;11.00;2.60;;;;;;;-147.86;100.00;-17609.17;105875;1251;61237;-49
2024/04/01 02:29:24;;;;;;;8.60;2.60;;;;;;;-147.86;100.00;-17609.17;105968;1256;75148;-50
2024/04/01 02:31:50;;;;;;;6.70;2.60;;;;;;;-147.86;100.00;-17609.17;106002;1255;65473;-50
2024/04/01 02:34:17;;;;;;;5.40;2.10;;;;;;;-147.86;100.00;-17609.17;105997;1253;71549;-50
2024/04/01 02:36:44;;;;;;;8.30;2.60;;;;;;;-147.86;100.00;-17609.17;105986;1251;61125;-49
2024/04/01 02:39:17;;;;;;;6.50;2.20;;;;;;;-147.86;100.00;-17609.17;105970;1251;61215;-45
2024/04/01 02:41:45;;;;;;;11.70;2.80;;;;;;;-147.86;100.00;-17609.17;105956;1254;74759;-46
2024/04/01 02:44:12;;;;;;;5.60;2.50;;;;;;;-147.86;100.00;-17609.17;105864;1251;65324;-47
2024/04/01 02:46:42;;;;;;;7.70;2.70;;;;;;;-147.86;100.00;-17609.17;105680;1251;71492;-45
2024/04/01 02:49:10;;;;;;;16.70;3.20;;;;;;;-147.86;100.00;-17609.17;105983;1251;61161;-47
2024/04/01 02:51:37;;;;;;;10.00;2.70;;;;;;;-147.86;100.00;-17609.17;106053;1251;61237;-46
2024/04/01 02:54:05;;;;;;;21.50;3.20;;;;;;;-147.86;100.00;-17609.17;105982;1251;74593;-45
2024/04/01 02:56:32;;;;;;;9.70;2.80;;;;;;;-147.86;100.00;-17609.17;105988;1251;64388;-46
2024/04/01 02:59:09;;;;;;;8.20;2.90;;;;;;;-147.86;100.00;-17609.17;105978;1257;72590;-46
2024/04/01 03:01:39;;;;;;;14.20;2.60;;;;;;;-147.86;100.00;-17609.17;105870;1255;62021;-46
2024/04/01 03:04:07;;;;;;;18.50;3.20;;;;;;;-147.86;100.00;-17609.17;105944;1251;61316;-46
2024/04/01 03:06:34;;;;;;;13.10;3.00;;;;;;;-147.86;100.00;-17609.17;105942;1257;74369;-46
2024/04/01 03:09:01;;;;;;;4.80;2.30;;;;;;;-147.86;100.00;-17609.17;105992;1255;64504;-46
2024/04/01 03:11:28;;;;;;;11.80;2.70;;;;;;;-147.86;100.00;-17609.17;105954;1251;73137;-45
2024/04/01 03:13:55;;;;;;;7.50;2.60;;;;;;;-147.86;100.00;-17609.17;105955;1251;61803;-46
2024/04/01 03:16:22;;;;;;;10.60;2.70;;;;;;;-147.86;100.00;-17609.17;105941;1251;61275;-46
2024/04/01 03:18:49;;;;;;;7.60;2.70;;;;;;;-147.86;100.00;-17609.17;105995;1256;74708;-46
2024/04/01 03:21:15;;;;;;;9.80;2.50;;;;;;;-147.86;100.00;-17609.17;105964;1251;65309;-46
2024/04/01 03:23:43;;;;;;;13.50;2.30;;;;;;;-147.86;100.00;-17609.17;105960;1251;72632;-46
2024/04/01 03:26:09;;;;;;;9.60;2.90;;;;;;;-147.86;100.00;-17609.17;106041;1257;61211;-45
2024/04/01 03:28:36;;;;;;;13.40;2.80;;;;;;;-147.86;100.00;-17609.17;105947;1251;61401;-46
2024/04/01 03:31:07;;;;;;;7.80;2.80;;;;;;;-147.86;100.00;-17609.17;105889;1256;74425;-45
2024/04/01 03:33:34;;;;;;;7.40;2.60;;;;;;;-147.86;100.00;-17609.17;106017;1254;65232;-46
2024/04/01 03:36:01;;;;;;;9.20;2.50;;;;;;;-147.86;100.00;-17609.17;105955;1251;72689;-46
2024/04/01 03:38:28;;;;;;;7.80;2.80;;;;;;;-147.86;100.00;-17609.17;105958;1255;61233;-48
2024/04/01 03:40:54;;;;;;;10.20;2.60;;;;;;;-147.86;100.00;-17609.17;105973;1251;61234;-46
2024/04/01 03:43:22;;;;;;;8.80;3.70;;;;;;;-147.86;100.00;-17609.17;105997;1255;74435;-45
2024/04/01 03:46:01;;;;;;;9.50;2.90;;;;;;;-147.86;100.00;-17609.17;105964;1251;65422;-46
2024/04/01 03:48:29;;;;;;;11.60;3.50;;;;;;;-147.86;100.00;-17609.17;105967;1255;72637;-47
2024/04/01 03:50:56;;;;;;;18.00;4.00;;;;;;;-147.86;100.00;-17609.17;106053;1251;61759;-45
2024/04/01 03:53:23;;;;;;;14.40;3.50;;;;;;;-147.86;100.00;-17609.17;105974;1251;61155;-45
2024/04/01 03:55:49;;;;;;;15.80;3.20;;;;;;;-147.86;100.00;-17609.17;105994;1254;74505;-46
2024/04/01 03:58:16;;;;;;;10.90;3.60;;;;;;;-147.86;100.00;-17609.17;105933;1257;65925;-46
2024/04/01 04:00:44;;;;;;;14.00;4.20;;;;;;;-147.86;100.00;-17609.17;105919;1251;72742;-45
2024/04/01 04:03:10;;;;;;;14.70;3.90;;;;;;;-147.86;100.00;-17609.17;105912;1251;63073;-47
2024/04/01 04:05:37;;;;;;;16.20;4.20;;;;;;;-147.86;100.00;-17609.17;105912;1251;61237;-45
2024/04/01 04:08:05;;;;;;;10.70;3.60;;;;;;;-147.86;100.00;-17609.17;105919;1251;74507;-48
2024/04/01 04:10:32;;;;;;;15.90;4.20;;;;;;;-147.86;100.00;-17609.17;105920;1255;64636;-47
2024/04/01 04:12:59;;;;;;;8.60;3.70;;;;;;;-147.86;100.00;-17609.17;105926;1251;72587;-45
2024/04/01 04:15:25;;;;;;;11.90;3.40;;;;;;;-147.86;100.00;-17609.17;105944;1250;61109;-46
2024/04/01 04:17:52;;;;;;;14.00;3.30;;;;;;;-147.86;100.00;-17609.17;105979;1257;61167;-46
2024/04/01 04:20:19;;;;;;;11.50;3.70;;;;;;;-147.86;100.00;-17609.17;105929;1255;74608;-45
2024/04/01 04:22:46;;;;;;;12.90;3.20;;;;;;;-147.86;100.00;-17609.17;105982;1256;65457;-45
2024/04/01 04:25:13;;;;;;;17.10;3.70;;;;;;;-147.86;100.00;-17609.17;106020;1256;72475;-47
2024/04/01 04:27:40;;;;;;;10.70;3.20;;;;;;;-147.86;100.00;-17609.17;105892;1255;61230;-46
2024/04/01 04:30:12;;;;;;;17.30;3.90;;;;;;;-147.86;100.00;-17609.17;105949;1257;61222;-47
2024/04/01 04:32:43;;;;;;;13.00;3.90;;;;;;;-147.86;100.00;-17609.17;105913;1257;74544;-44
2024/04/01 04:35:13;;;;;;;20.60;3.50;;;;;;;-147.86;100.00;-17609.17;105941;1251;65535;-46
2024/04/01 04:37:40;;;;;;;18.30;3.40;;;;;;;-147.86;100.00;-17609.17;106019;1251;72673;-46
2024/04/01 04:40:10;;;;;;;15.40;3.30;;;;;;;-147.86;100.00;-17609.17;105915;1251;61224;-45
2024/04/01 04:42:36;;;;;;;20.90;3.90;;;;;;;-147.86;100.00;-17609.17;106001;1251;61353;-45
2024/04/01 04:45:04;;;;;;;12.70;3.20;;;;;;;-147.86;100.00;-17609.17;105940;1256;74663;-47
2024/04/01 04:47:33;;;;;;;19.40;3.60;;;;;;;-147.86;100.00;-17609.17;105922;1251;65374;-44
2024/04/01 04:50:00;;;;;;;17.50;3.80;;;;;;;-147.86;100.00;-17609.17;105920;1256;72619;-45
2024/04/01 04:52:27;;;;;;;16.50;3.50;;;;;;;-147.86;100.00;-17609.17;105927;1251;61947;-46
2024/04/01 04:54:54;;;;;;;16.60;3.90;;;;;;;-147.86;100.00;-17609.17;105899;1251;61270;-45
2024/04/01 04:57:21;;;;;;;18.30;3.60;;;;;;;-147.86;100.00;-17609.17;105934;1256;74932;-47
2024/04/01 04:59:48;;;;;;;13.80;3.20;;;;;;;-147.86;100.00;-17609.17;105945;1257;65497;-47
2024/04/01 05:02:15;;;;;;;19.20;4.20;;;;;;;-147.86;100.00;-17609.17;106047;1251;72514;-47
2024/04/01 05:04:42;;;;;;;15.30;4.20;;;;;;;-147.86;100.00;-17609.17;105932;1255;61537;-45
2024/04/01 05:07:09;;;;;;;13.80;3.60;;;;;;;-147.86;100.00;-17609.17;105993;1251;61240;-45
2024/04/01 05:09:36;;;;;;;13.20;3.70;;;;;;;-147.86;100.00;-17609.17;105994;1253;74549;-45
2024/04/01 05:12:05;;;;;;;18.40;4.10;;;;;;;-147.86;100.00;-17609.17;105941;1257;65217;-45
2024/04/01 05:14:32;;;;;;;13.40;3.20;;;;;;;-147.86;100.00;-17609.17;105963;1252;72649;-45
2024/04/01 05:16:59;;;;;;;9.60;3.20;;;;;;;-147.86;100.00;-17609.17;105992;1251;61139;-45
2024/04/01 05:19:26;;;;;;;29.50;3.40;;;;;;;-147.86;100.00;-17609.17;105951;1251;61323;-46
2024/04/01 05:21:53;;;;;;;12.20;3.00;;;;;;;-147.86;100.00;-17609.17;106011;1252;74673;-45
2024/04/01 05:24:20;;;;;;;15.30;3.30;;;;;;;-147.86;100.00;-17609.17;105962;1256;64486;-46
2024/04/01 05:26:47;;;;;;;17.00;3.70;;;;;;;-147.86;100.00;-17609.17;105940;1251;72622;-45
2024/04/01 05:29:14;;;;;;;14.00;3.20;;;;;;;-147.86;100.00;-17609.17;106038;1256;62012;-47
2024/04/01 05:31:41;;;;;;;9.30;3.10;;;;;;;-147.86;100.00;-17609.17;105959;1251;61355;-45
2024/04/01 05:34:09;;;;;;;17.90;3.50;;;;;;;-147.86;100.00;-17609.17;105975;1255;74399;-48
2024/04/01 05:36:36;;;;;;;10.20;3.00;;;;;;;-147.86;100.00;-17609.17;105991;1256;64262;-45
2024/04/01 05:39:05;;;;;;;13.10;2.90;;;;;;;-147.86;100.00;-17609.17;105954;1252;72858;-45
2024/04/01 05:41:32;;;;;;;12.90;3.10;;;;;;;-147.86;100.00;-17609.17;105961;1255;61132;-46
2024/04/01 05:44:00;;;;;;;11.90;3.30;;;;;;;-147.86;100.00;-17609.17;105980;1251;61126;-45
2024/04/01 05:46:27;;;;;;;9.40;3.00;;;;;;;-147.86;100.00;-17609.17;105994;1256;74558;-45
2024/04/01 05:48:54;;;;;;;15.50;3.60;;;;;;;-147.86;100.00;-17609.17;106037;1255;65502;-46
2024/04/01 05:51:20;;;;;;;13.40;2.90;;;;;;;-147.86;100.00;-17609.17;105952;1251;72626;-45
2024/04/01 05:53:48;;;;;;;15.60;3.30;;;;;;;-147.86;100.00;-17609.17;105915;1257;61135;-45
2024/04/01 05:56:14;;;;;;;9.40;2.50;;;;;;;-147.86;100.00;-17609.17;105896;1251;61342;-46
2024/04/01 05:58:42;;;;;;;22.00;4.00;;;;;;;-147.86;100.00;-17609.17;105965;1257;74575;-46
2024/04/01 06:01:09;;;;;;;19.40;3.30;;;;;;;-147.86;100.00;-17609.17;105955;1256;65231;-45
2024/04/01 06:03:36;;;;;;;12.20;3.70;;;;;;;-147.86;100.00;-17609.17;105954;1251;72805;-44
2024/04/01 06:06:03;;;;;;;11.50;3.40;;;;;;;-147.86;100.00;-17609.17;105942;1255;61157;-46
2024/04/01 06:08:30;;;;;;;19.70;4.40;;;;;;;-147.86;100.00;-17609.17;106005;1252;61301;-46
2024/04/01 06:11:00;;;;;;;20.20;4.00;;;;;;;-147.86;100.00;-17609.17;105942;1256;74490;-50
2024/04/01 06:13:27;;;;;;;18.20;5.00;;;;;;;-147.86;100.00;-17609.17;105964;1256;65549;-46
2024/04/01 06:15:54;;;;;;;25.20;5.30;;;;;;;-147.86;100.00;-17609.17;106017;1256;73787;-50
2024/04/01 06:18:22;;;;;;;30.40;4.00;;;;;;;-147.86;100.00;-17609.17;105994;1257;61161;-48
2024/04/01 06:20:49;;;;;;;24.20;4.20;;;;;;;-147.86;100.00;-17459.98;105966;1251;61455;-46
2024/04/01 06:23:16;;;;;;;20.50;4.20;;;;;;;-147.86;100.00;-16818.17;105982;1253;75105;-47
2024/04/01 06:25:43;;;;;;;24.20;4.60;;;;;;;-147.86;100.00;-16275.25;105983;1257;65415;-46
2024/04/01 06:28:10;;;;;;;21.30;3.40;;;;;;;-147.86;100.00;-14399.09;105967;1251;73797;-45
2024/04/01 06:30:37;;;;;;;22.60;4.20;;;;;;;-147.86;100.00;-12472.70;106024;1256;61239;-45
2024/04/01 06:33:04;;;;;;;25.40;4.20;;;;;;;-147.86;100.00;-9852.94;105922;1251;61692;-45
2024/04/01 06:35:31;;;;;;;22.60;4.10;;;;;;;-147.86;100.00;-6192.64;105970;1256;74526;-45
2024/04/01 06:38:01;;;;;;;18.70;4.30;;;;;;;-147.86;100.00;-3717.38;105956;1251;66713;-46
2024/04/01 06:40:28;;;;;;;29.10;5.10;;;;;;;-147.86;100.00;-1290.08;105908;1257;73997;-46
2024/04/01 06:42:55;;;;;;;27.10;4.10;;;;;;;-147.86;100.00;1039.58;105942;1256;61157;-47
2024/04/01 06:45:22;;;;;;;26.40;4.10;;;;;;;-147.86;100.00;2576.94;105923;1251;61339;-49
2024/04/01 06:47:49;;;;;;;20.90;4.10;;;;;;;-147.86;99.92;6398.18;105975;1256;74827;-46
2024/04/01 06:50:16;;;;;;;55.60;5.80;;;;;;;-147.86;100.00;7440.98;105960;1256;65359;-45
2024/04/01 06:52:43;;;;;;;38.00;5.30;;;;;;;-147.86;99.32;9925.13;106004;1251;73813;-46
2024/04/01 06:55:09;;;;;;;42.10;6.00;;;;;;;-147.86;98.77;12758.80;106037;1257;62117;-46
2024/04/01 06:57:36;;;;;;;25.90;4.60;;;;;;;-147.86;96.13;20027.06;105923;1257;61572;-47
2024/04/01 07:00:05;;;;;;;40.50;4.90;;;;;;;-147.86;95.32;26197.01;105951;1253;76045;-46
2024/04/01 07:02:32;;;;;;;24.50;3.90;;;;;;;-147.86;94.02;31757.39;105973;1255;65051;-46
2024/04/01 07:04:59;;;;;;;27.40;4.70;;;;;;;-147.86;92.20;36389.81;105932;1256;73982;-46
2024/04/01 07:07:26;;;;;;;33.30;4.30;;;;;;;-147.86;90.30;39755.65;105916;1257;61665;-46
2024/04/01 07:09:53;;;;;;;84.80;6.20;;;;;;;-147.86;88.64;42025.42;105959;1253;61922;-45
2024/04/01 07:12:20;;;;;;;26.80;4.20;;;;;;;-147.86;87.31;43595.08;105984;1252;76103;-46
2024/04/01 07:14:46;;;;;;;28.10;4.70;;;;;;;-147.86;86.31;44657.66;105968;1255;66186;-45
2024/04/01 07:17:13;;;;;;;32.80;4.90;;;;;;;-147.86;85.42;45427.07;105945;1257;73198;-46
2024/04/01 07:19:40;;;;;;;44.60;5.50;;;;;;;-147.86;85.29;45953.29;105932;1255;61855;-45
2024/04/01 07:22:08;;;;;;;25.00;3.90;;;;;;;-147.86;84.16;46643.02;105999;1251;61548;-45
2024/04/01 07:24:35;;;;;;;36.80;5.10;;;;;;;-147.86;80.59;47428.49;105966;1257;76156;-45
2024/04/01 07:27:02;;;;;;;28.40;4.50;;;;;;;-147.86;80.28;47800.12;105985;1256;66243;-46
2024/04/01 07:29:30;;;;;;;43.00;6.10;;;;;;;-147.86;80.15;48018.09;106019;1251;72735;-46
2024/04/01 07:31:57;;;;;;;26.00;4.80;;;;;;;-147.86;78.70;48209.03;106004;1257;61517;-47
2024/04/01 07:34:24;;;;;;;33.60;4.90;;;;;;;-147.86;76.00;48386.65;105958;1253;61253;-47
2024/04/01 07:36:51;;;;;;;24.40;4.60;;;;;;;-147.86;74.55;48553.29;105955;1256;75987;-46
2024/04/01 07:39:18;;;;;;;33.10;4.50;;;;;;;-147.86;70.50;48700.72;105996;1255;66809;-46
2024/04/01 07:41:45;;;;;;;27.00;4.40;;;;;;;-147.86;67.39;48758.75;105992;1251;72619;-47
2024/04/01 07:44:12;;;;;;;29.20;4.40;;;;;;;-147.86;66.98;48796.01;105974;1256;61512;-47
2024/04/01 07:46:39;;;;;;;30.20;4.50;;;;;;;-147.86;64.65;48773.27;105993;1251;61848;-49
2024/04/01 07:49:06;;;;;;;21.20;3.60;;;;;;;-147.86;63.65;48822.28;105967;1251;76323;-50
2024/04/01 07:51:34;;;;;;;26.40;3.60;;;;;;;-147.86;64.55;48839.54;105741;1257;66926;-45
2024/04/01 07:54:01;;;;;;;21.20;4.00;;;;;;;-147.86;63.07;48857.96;105785;1257;73987;-46
2024/04/01 07:56:28;;;;;;;17.80;3.90;;;;;;;-147.86;62.37;48888.55;105894;1257;61234;-45
2024/04/01 07:58:56;;;;;;;23.10;3.80;;;;;;;-147.86;62.81;48908.16;106037;1252;61510;-50
2024/04/01 08:01:27;;;;;;;23.50;5.00;;;;;;;-147.86;63.29;48917.57;105974;1257;76020;-53
2024/04/01 08:03:55;;;;;;;30.20;4.30;;;;;;;-147.86;64.05;48937.18;105944;1251;66436;-48
2024/04/01 08:06:22;;;;;;;29.70;5.00;;;;;;;-147.86;59.38;48923.06;105976;1251;73820;-49
2024/04/01 08:08:48;;;;;;;29.00;4.90;;;;;;;-147.86;59.82;48888.55;105982;1256;61673;-47
2024/04/01 08:11:15;;;;;;;28.80;4.50;;;;;;;-147.86;60.84;48899.53;105924;1256;61662;-48
2024/04/01 08:13:43;;;;;;;31.40;5.10;;;;;;;-147.86;59.31;48892.08;106013;1257;75982;-47
2024/04/01 08:16:10;;;;;;;31.30;4.70;;;;;;;-147.86;58.21;48895.61;105977;1257;64964;-48
2024/04/01 08:18:37;;;;;;;23.60;4.70;;;;;;;-147.86;56.07;48877.18;105971;1255;73205;-47
2024/04/01 08:21:04;;;;;;;31.00;4.80;;;;;;;-147.86;55.87;48866.20;105942;1256;61163;-50
2024/04/01 08:23:31;;;;;;;35.30;4.80;;;;;;;-147.86;55.22;48848.16;105952;1251;61506;-47
2024/04/01 08:25:58;;;;;;;23.70;4.70;;;;;;;-147.86;55.13;48821.49;105922;1252;76020;-50
2024/04/01 08:28:25;;;;;;;25.60;4.40;;;;;;;-147.86;57.14;48831.30;105968;1255;65891;-46
2024/04/01 08:30:52;;;;;;;20.30;3.60;;;;;;;-147.86;57.22;48846.59;105989;1251;74109;-48
2024/04/01 08:33:20;;;;;;;26.50;4.40;;;;;;;-147.86;54.84;48870.51;105951;1254;61346;-48
2024/04/01 08:35:47;;;;;;;31.50;5.20;;;;;;;-147.86;54.10;48885.41;105981;1252;61602;-50
2024/04/01 08:38:14;;;;;;;35.60;5.00;;;;;;;-147.86;53.58;48929.73;105975;1256;74657;-47
2024/04/01 08:40:51;;;;;;;23.40;4.40;;;;;;;-147.86;51.71;48935.22;105970;1257;66198;-47
2024/04/01 08:43:31;;;;;;;22.30;4.50;;;;;;;-147.86;52.47;48967.37;105862;1257;73990;-49
2024/04/01 08:45:57;;;;;;;27.50;4.40;;;;;;;-147.86;50.82;48988.16;105938;1257;61237;-48
2024/04/01 08:48:26;;;;;;;22.10;3.80;;;;;;;-147.86;49.31;48988.16;105866;1252;61509;-50
2024/04/01 08:51:01;;;;;;;16.50;3.90;;;;;;;-147.86;47.02;48960.71;105955;1256;75799;-48
2024/04/01 08:53:49;;;;;;;;;;;;;;;-147.86;47.95;48969.34;106053;1255;66667;-48
2024/04/01 08:56:18;;;;;;;25.60;4.40;;;;;;;-147.86;47.07;48977.18;105949;1251;72990;-45
2024/04/01 08:58:45;;;;;;;27.60;4.40;;;;;;;-147.86;45.62;48973.65;105978;1255;61405;-46
2024/04/01 09:01:12;;;;;;;26.30;4.60;;;;;;;-147.86;44.79;48961.10;105987;1257;61761;-47
2024/04/01 09:03:39;;;;;;;30.40;4.50;;;;;;;-147.86;45.08;48934.43;105948;1255;74584;-48
2024/04/01 09:06:06;;;;;;;32.50;4.20;;;;;;;-147.86;45.39;48963.45;105944;1251;66994;-48
2024/04/01 09:08:33;;;;;;;47.20;4.40;;;;;;;-147.86;43.04;48979.13;105918;1251;72854;-47
2024/04/01 09:11:00;;;;;;;17.40;3.50;;;;;;;-147.86;42.15;48970.51;105943;1254;61554;-48
2024/04/01 09:13:28;;;;;;;32.20;3.80;;;;;;;-147.86;41.86;48949.34;105966;1256;61549;-48
2024/04/01 09:15:54;;;;;;;15.70;3.50;;;;;;;-147.86;40.90;48952.47;105952;1256;75710;-48
2024/04/01 09:18:21;;;;;;;26.00;4.30;;;;;;;-147.86;40.37;48923.06;105741;1260;65778;-47
2024/04/01 09:20:48;;;;;;;20.50;3.90;;;;;;;-147.86;40.16;48917.57;105965;1251;74020;-47
2024/04/01 09:23:15;;;;;;;22.80;4.40;;;;;;;-147.86;40.45;48898.75;105730;1252;61379;-46
2024/04/01 09:25:42;;;;;;;29.20;3.80;;;;;;;-147.86;39.91;48924.63;105960;1251;61740;-50
2024/04/01 09:28:09;;;;;;;19.10;3.70;;;;;;;-147.86;40.01;48958.35;105919;1256;76167;-51
2024/04/01 09:30:36;;;;;;;21.50;4.20;;;;;;;-147.86;39.65;49012.07;105955;1256;65890;-47
2024/04/01 09:33:04;;;;;;;53.30;5.50;;;;;;;-147.86;39.17;49070.51;105959;1255;72783;-49
2024/04/01 09:35:31;;;;;;;29.10;4.80;;;;;;;-147.86;37.27;49015.61;105968;1264;62097;-50
2024/04/01 09:37:58;;;;;;;53.10;4.20;;;;;;;-147.86;37.52;48976.00;106009;1251;61231;-51
2024/04/01 09:40:25;;;;;;;41.70;4.50;;;;;;;-147.86;37.31;48933.65;105935;1257;74685;-51
2024/04/01 09:42:58;;;;;;;33.80;3.60;;;;;;;-147.86;37.03;48856.00;105925;1256;66114;-51
2024/04/01 09:45:27;;;;;;;20.80;3.40;;;;;;;-147.86;36.78;48789.73;105973;1251;72995;-48
2024/04/01 09:47:54;;;;;;;22.40;3.70;;;;;;;-147.86;36.85;48737.19;105949;1257;61447;-51
2024/04/01 09:50:21;;;;;;;57.90;4.50;;;;;;;-147.86;37.28;48712.49;105973;1251;61358;-46
2024/04/01 09:52:48;;;;;;;19.50;3.60;;;;;;;-147.86;37.15;48679.94;105332;1251;888827;-49
2024/04/01 09:57:38;;;;;;;16.20;3.90;;;;;;;-147.86;37.31;48257.34;102392;1293;603325;-48
2024/04/01 10:00:10;;;;;;;24.70;3.90;;;;;;;-147.86;36.81;48647.39;104848;1271;62459;-47
2024/04/01 10:03:04;;;;;;;17.90;3.90;;;;;;;-147.86;36.91;48630.53;104808;1266;61537;-48
2024/04/01 10:06:17;;;;;;;17.80;3.70;;;;;;;-147.86;37.17;48625.43;104821;1266;73147;-48
2024/04/01 10:08:53;;;;;;;22.90;3.30;;;;;;;-147.86;36.82;48626.22;105188;1267;65974;-49
2024/04/01 10:11:29;;;;;;;20.50;4.20;;;;;;;-147.86;36.93;48638.76;105071;1262;269160;-48
2024/04/01 10:14:38;;;;;;;29.10;3.50;;;;;;;-147.86;37.53;48672.48;105205;1265;60665;-47
2024/04/01 10:17:43;;;;;;;20.90;4.00;;;;;;;-147.86;36.99;48699.54;105172;1262;60408;-48
2024/04/01 10:20:24;;;;;;;17.80;3.50;;;;;;;-147.86;35.57;48707.38;105269;1263;74185;-47
2024/04/01 10:23:09;;;;;;;33.80;4.20;;;;;;;-147.86;35.39;48669.35;105257;1265;66151;-47
2024/04/01 10:26:01;;;;;;;21.00;4.10;;;;;;;-147.86;35.49;48680.72;105284;1262;72888;-50
2024/04/01 10:29:03;;;;;;;22.80;4.40;;;;;;;-147.86;35.71;48661.51;105230;1266;61627;-49
2024/04/01 10:31:54;;;;;;;18.10;3.50;;;;;;;-147.86;36.17;48632.10;105226;1262;61732;-49
2024/04/01 10:34:34;;;;;;;22.30;3.60;;;;;;;-147.86;37.28;48637.20;105186;1262;75180;-49
2024/04/01 10:37:20;;;;;;;26.40;3.30;;;;;;;-147.86;36.88;48627.00;105243;1267;65976;-50
2024/04/01 10:40:03;;;;;;;14.20;3.40;;;;;;;-147.86;36.84;48611.32;105239;1262;73953;-48
2024/04/01 10:43:09;;;;;;;33.50;4.00;;;;;;;-147.86;36.99;48628.96;105232;1262;60624;-46
2024/04/01 10:45:48;;;;;;;17.50;3.20;;;;;;;-147.86;37.31;48630.93;105287;1262;62108;-48
2024/04/01 10:48:19;;;;;;;17.80;3.00;;;;;;;-147.86;37.78;48629.35;105206;1262;75070;-46
2024/04/01 10:51:11;;;;;;;30.20;3.90;;;;;;;-147.86;37.41;48612.10;105246;1264;63739;-48
2024/04/01 10:54:07;;;;;;;29.90;4.10;;;;;;;-147.86;37.95;48617.98;105252;1267;74124;-47
2024/04/01 10:56:53;;;;;;;22.00;4.30;;;;;;;-147.86;37.77;48610.14;105205;1266;60432;-48
2024/04/01 10:59:45;;;;;;;23.30;3.90;;;;;;;-147.86;37.76;48595.24;105236;1262;61400;-49
2024/04/01 11:02:18;;;;;;;26.60;4.30;;;;;;;-147.86;38.11;48607.40;105170;1262;74185;-49
2024/04/01 11:04:57;;;;;;;36.00;4.10;;;;;;;-147.86;38.85;48613.27;105234;1262;65093;-47
2024/04/01 11:07:50;;;;;;;23.90;3.60;;;;;;;-147.86;38.01;48604.26;105178;1263;74262;-49